Saturday, January 20, 2018, 3:29 AM GMT
Back to Local

CWZQ, Grand Etang, N. S.

Location: , , Canada Lat: 46.55
Local Time: 3:29 AM GMT ( 3:29 GMT) Lon: -61.05
Time Zone: GMT Elev: 42 ft

Show me the last for .
Show Coded

Time T Td Feel RH Dir Speed Gust Alt SLP Vis Weather Sky Remarks
2018-01-20 03:20 22 17 11 79 280° 10 - - - 0 None
2018-01-20 03:00 22 16 11 78 300° 9 - - 29.87 0 None
2018-01-20 02:40 21 15 12 77 290° 8 - - - 0 None
2018-01-20 02:20 21 15 11 76 300° 9 - - - 0 None
2018-01-20 02:00 21 16 10 79 290° 10 - - 29.83 0 None
2018-01-20 01:40 22 16 11 78 300° 10 - - - 0 None
2018-01-20 01:20 22 16 12 77 300° 8 - - - 0 None
2018-01-20 01:00 22 15 11 76 330° 9 - - 29.82 0 None
2018-01-20 00:40 22 15 10 75 330° 12 - - - 0 None
2018-01-20 00:20 22 15 11 76 320° 10 - - - 0 None
2018-01-20 00:00 22 16 10 76 320° 13 - - 29.83 0 None
2018-01-19 23:40 22 16 10 77 320° 12 - - - 0 None
2018-01-19 23:20 24 16 12 72 330° 13 - - - 0 None
2018-01-19 23:00 24 17 10 74 330° 12 17 - 29.82 0 Peak wind: 20 mph (18 kts) from 340° at 02 min
2018-01-19 22:40 22 15 7 72 320° 14 20 - - 0 None
2018-01-19 22:20 22 16 10 76 330° 13 - - - 0 None
2018-01-19 22:00 22 16 9 77 340° 15 - - 29.81 0 Peak wind: 20 mph (18 kts) from 330° at 06 min
2018-01-19 21:40 22 16 8 78 340° 16 - - - 0 None
2018-01-19 21:20 22 17 10 79 330° 14 - - - 0 None
2018-01-19 21:00 22 16 7 76 340° 15 21 - 29.80 0 Peak wind: 20 mph (18 kts) from 320° at 37 min
2018-01-19 20:40 23 16 9 75 320° 16 - - - 0 None
2018-01-19 20:20 22 16 7 76 340° 14 20 - - 0 None
2018-01-19 20:00 23 17 9 76 330° 16 - - 29.79 0 Peak wind: 21 mph (19 kts) from 330° at 17 min
2018-01-19 19:40 23 16 9 75 330° 17 - - - 0 None
2018-01-19 19:20 23 19 8 82 330° 15 22 - - 0 None
2018-01-19 19:00 23 17 8 77 330° 16 22 - 29.78 0 Peak wind: 21 mph (19 kts) from 340° at 41 min
2018-01-19 18:40 23 18 11 79 330° 15 - - - 0 None
2018-01-19 18:20 23 18 11 78 330° 15 - - - 0 None
2018-01-19 18:00 24 19 11 80 340° 15 - - 29.75 0 Peak wind: 19 mph (17 kts) from 340° at 56 min
2018-01-19 17:40 24 18 11 78 340° 15 - - - 0 None
2018-01-19 17:20 24 18 12 78 340° 14 - - - 0 None
2018-01-19 17:00 24 17 11 74 350° 15 - - 29.74 0 Peak wind: 20 mph (18 kts) from 320° at 03 min
2018-01-19 16:40 24 18 11 77 340° 15 - - - 0 None
2018-01-19 16:20 24 17 11 76 330° 15 - - - 0 None
2018-01-19 16:00 23 17 11 77 340° 15 - - 29.77 0 Peak wind: 19 mph (17 kts) from 340° at 34 min
2018-01-19 15:40 23 18 11 80 340° 15 - - - 0 None
2018-01-19 15:20 24 18 11 80 350° 15 - - - 0 None
2018-01-19 15:00 23 18 9 80 350° 17 - - 29.77 0 Peak wind: 23 mph (20 kts) from 340° at 13 min
2018-01-19 14:40 23 19 10 83 350° 15 - - - 0 None
2018-01-19 14:20 23 19 9 82 340° 20 - - - 0 None
2018-01-19 14:00 23 20 9 85 350° 20 - - 29.78 0 Peak wind: 24 mph (21 kts) from 350° at 15 min
2018-01-19 13:40 24 19 8 81 350° 18 24 - - 0 None
2018-01-19 13:20 24 20 9 84 360° 20 - - - 0 None
2018-01-19 13:00 24 19 9 82 360° 20 - - 29.75 0 Peak wind: 25 mph (22 kts) from 340° at 46 min
2018-01-19 12:40 24 20 10 85 350° 18 - - - 0 None
2018-01-19 12:20 24 18 9 76 350° 21 - - - 0 None
2018-01-19 12:00 24 19 11 80 350° 18 - - 29.74 0 Peak wind: 21 mph (19 kts) from 350° at 55 min
2018-01-19 11:20 25 19 12 79 360° 16 - - - 0 None
2018-01-19 11:00 25 21 12 83 360° 18 - - 29.73 0 Peak wind: 26 mph (23 kts) from 350° at 36 min
2018-01-19 10:40 25 21 9 84 360° 21 26 - - 0 None
2018-01-19 10:20 25 22 11 87 360° 21 - - - 0 None
2018-01-19 10:00 25 23 11 89 360° 20 - - 29.71 0 Peak wind: 24 mph (21 kts) from 350° at 47 min
2018-01-19 09:40 26 23 12 87 360° 20 - - - 0 None
2018-01-19 09:20 26 20 14 77 360° 15 - - - 0 None
2018-01-19 09:00 26 19 13 74 360° 13 18 - 29.72 0 None
2018-01-19 07:40 26 20 15 76 340° 14 - - - 0 None
2018-01-19 07:20 26 21 15 79 350° 13 - - - 0 None
2018-01-19 07:00 26 22 15 84 360° 13 - - 29.73 0 None
2018-01-19 06:40 26 20 16 77 350° 12 - - - 0 None
2018-01-19 06:20 26 22 15 83 350° 14 - - - 0 None
2018-01-19 06:00 26 21 15 78 350° 14 - - 29.72 0 Peak wind: 20 mph (18 kts) from 350° at 09 min
2018-01-19 05:40 26 20 12 77 350° 14 20 - - 0 None
2018-01-19 05:20 26 19 13 76 350° 16 - - - 0 None
2018-01-19 05:00 26 20 14 76 340° 16 - - 29.72 0 Peak wind: 21 mph (19 kts) from 340° at 44 min
2018-01-19 04:40 26 21 14 80 340° 15 - - - 0 None
2018-01-19 04:20 26 22 14 82 340° 15 - - - 0 None
2018-01-19 04:00 27 21 15 80 340° 14 - - 29.75 0 Peak wind: 20 mph (18 kts) from 330° at 22 min

Support USWX by starting your Amazon purchase here.